Cedar Valley, Iowa
Current Conditions -  °F | °C
As of 6:52 AM on Friday 19 Dec 2014 (Local Time) from KIOW Reporting Station
Clear Clear  
Wind Chill: 22°   Ceiling: Unl
Heat Index: 22°   Visibility: 7mi
Dew Point: 19°   Wind: 3mph
Humidity: 89%   Direction: 110°ESE
Pressure: 30.32"   Gusts: NA
Location:  41.6714°N, 91.2723°W
Report Text: KIOW 191252Z AUTO 11003KT 7SM CLR M06/M07 A3032 RMK AO2 SLP277 T10561072
Loading
Personal Weather Stations






























Interactive Weather Map New forecast layout! Learn more

10-Day Weather Forecast

Advertisements
Track Severe Weather on mobile